createdAt,value
2019-02-21T00:04:15.209Z,8.40
2019-02-21T00:09:20.182Z,8.83
2019-02-21T00:14:24.854Z,8.97
2019-02-21T00:19:30.061Z,9.07
2019-02-21T00:24:36.580Z,9.38
2019-02-21T00:29:41.804Z,9.55
2019-02-21T00:34:46.805Z,10.03
2019-02-21T00:39:54.849Z,10.00
2019-02-21T00:44:59.568Z,10.30
2019-02-21T00:50:04.042Z,9.93
2019-02-21T00:55:08.850Z,10.27
2019-02-21T01:00:14.341Z,9.87
2019-02-21T01:05:20.248Z,10.13
2019-02-21T01:10:24.607Z,10.37
2019-02-21T01:15:29.290Z,9.87
2019-02-21T01:20:34.351Z,10.15
2019-02-21T01:25:42.045Z,8.77
2019-02-21T01:30:56.410Z,9.77
2019-02-21T01:35:53.205Z,10.48
2019-02-21T01:40:58.505Z,9.57
2019-02-21T01:46:04.435Z,10.00
2019-02-21T01:51:08.983Z,8.93
2019-02-21T01:56:15.264Z,9.33
2019-02-21T02:01:19.990Z,9.00
2019-02-21T02:06:24.838Z,9.43
2019-02-21T02:11:29.330Z,9.23
2019-02-21T02:16:34.949Z,10.53
2019-02-21T02:21:40.004Z,10.27
2019-02-21T02:26:44.491Z,9.25
2019-02-21T02:31:49.846Z,9.97
2019-02-21T02:36:55.249Z,10.20
2019-02-21T02:42:00.034Z,10.97
2019-02-21T02:47:05.189Z,10.43
2019-02-21T02:52:09.979Z,10.43
2019-02-21T02:57:14.892Z,10.43
2019-02-21T03:02:20.375Z,10.97
2019-02-21T03:07:24.811Z,11.37
2019-02-21T03:12:29.555Z,10.63
2019-02-21T03:17:34.318Z,10.00
2019-02-21T03:22:38.858Z,10.50
2019-02-21T03:27:43.604Z,10.53
2019-02-21T03:32:48.479Z,9.53
2019-02-21T03:37:53.446Z,10.32
2019-02-21T03:42:58.254Z,10.13
2019-02-21T03:48:02.962Z,10.63
2019-02-21T03:53:07.667Z,8.98
2019-02-21T03:58:12.516Z,10.13
2019-02-21T04:03:17.547Z,10.30
2019-02-21T04:08:22.518Z,10.03
2019-02-21T04:13:27.500Z,9.93
2019-02-21T04:18:32.748Z,10.53
2019-02-21T04:23:38.174Z,11.30
2019-02-21T04:28:45.705Z,10.50
2019-02-21T04:33:49.724Z,11.30
2019-02-21T04:38:54.127Z,11.12
2019-02-21T04:43:58.930Z,11.93
2019-02-21T04:49:05.705Z,11.43
2019-02-21T04:54:10.343Z,10.43
2019-02-21T04:59:14.865Z,10.87
2019-02-21T05:04:19.354Z,11.30
2019-02-21T05:09:27.009Z,10.60
2019-02-21T05:14:32.554Z,11.57
2019-02-21T05:19:38.078Z,12.40
2019-02-21T05:24:43.038Z,11.37
2019-02-21T05:29:48.720Z,11.30
2019-02-21T05:35:15.477Z,11.20
2019-02-21T05:40:42.368Z,11.17
2019-02-21T05:45:58.525Z,10.68
2019-02-21T05:51:16.053Z,11.23
2019-02-21T05:56:36.141Z,10.10
2019-02-21T06:02:06.329Z,11.40
2019-02-21T06:07:22.479Z,11.53
2019-02-21T06:12:46.554Z,10.47
2019-02-21T06:18:05.503Z,13.03
2019-02-21T06:23:49.195Z,11.23
2019-02-21T06:29:16.232Z,11.83
2019-02-21T06:34:21.584Z,11.40
2019-02-21T06:39:29.275Z,10.73
2019-02-21T06:44:37.815Z,12.40
2019-02-21T06:49:43.945Z,12.97
2019-02-21T06:54:49.254Z,13.73
2019-02-21T06:59:54.561Z,16.60
2019-02-21T07:04:59.266Z,13.47
2019-02-21T07:10:03.592Z,10.07
2019-02-21T07:15:09.438Z,9.83
2019-02-21T07:20:14.018Z,9.37
2019-02-21T07:25:41.541Z,10.23
2019-02-21T07:30:46.614Z,9.93
2019-02-21T07:35:53.712Z,9.97
2019-02-21T07:40:58.115Z,11.43
2019-02-21T07:46:02.667Z,10.83
2019-02-21T07:51:07.413Z,11.27
2019-02-21T07:56:11.889Z,10.60
2019-02-21T08:01:17.435Z,10.37
2019-02-21T08:06:22.143Z,10.50
2019-02-21T08:11:27.331Z,9.30
2019-02-21T08:16:31.808Z,8.43
2019-02-21T08:21:36.536Z,8.10
2019-02-21T08:26:42.192Z,7.77
2019-02-21T08:31:46.956Z,7.17
2019-02-21T08:36:51.827Z,6.97
2019-02-21T08:41:56.452Z,7.30
2019-02-21T08:47:01.939Z,7.90
2019-02-21T08:52:06.781Z,7.30
2019-02-21T08:57:11.428Z,7.37
2019-02-21T09:02:16.224Z,7.80
2019-02-21T09:07:20.638Z,7.73
2019-02-21T09:12:25.884Z,8.05
2019-02-21T09:17:33.048Z,7.10
2019-02-21T09:22:37.810Z,8.70
2019-02-21T09:27:46.254Z,8.08
2019-02-21T09:32:52.113Z,7.78
2019-02-21T09:37:56.876Z,8.05
2019-02-21T09:43:01.876Z,8.23
2019-02-21T09:48:11.936Z,7.65
2019-02-21T09:53:15.855Z,7.87
2019-02-21T09:58:20.331Z,7.60
2019-02-21T10:03:24.989Z,7.80
2019-02-21T10:08:30.741Z,8.00
2019-02-21T10:13:35.067Z,7.55
2019-02-21T10:18:41.221Z,7.50
2019-02-21T10:23:45.642Z,7.87
2019-02-21T10:28:50.294Z,8.90
2019-02-21T10:33:54.981Z,9.73
2019-02-21T10:39:00.611Z,9.03
2019-02-21T10:44:05.527Z,8.47
2019-02-21T10:49:10.202Z,9.10
2019-02-21T10:54:15.743Z,9.47
2019-02-21T10:59:20.707Z,8.27
2019-02-21T11:04:26.089Z,8.73
2019-02-21T11:09:30.444Z,7.97
2019-02-21T11:14:34.864Z,8.37
2019-02-21T11:19:39.483Z,7.30
2019-02-21T11:24:44.527Z,7.80
2019-02-21T11:29:49.001Z,6.37
2019-02-21T11:34:53.382Z,6.97
2019-02-21T11:39:57.807Z,7.03
2019-02-21T11:45:02.930Z,6.90
2019-02-21T11:50:08.298Z,5.67
2019-02-21T11:55:16.019Z,5.73
2019-02-21T12:00:22.790Z,6.03
2019-02-21T12:05:31.497Z,6.40
2019-02-21T12:10:33.352Z,6.20
2019-02-21T12:15:38.013Z,6.20
2019-02-21T12:20:43.355Z,6.67
2019-02-21T12:25:48.071Z,5.77
2019-02-21T12:30:52.496Z,5.03
2019-02-21T12:35:59.510Z,5.90
2019-02-21T12:41:04.434Z,5.73
2019-02-21T12:46:08.943Z,5.47
2019-02-21T12:51:14.469Z,5.70
2019-02-21T12:56:19.784Z,5.13
2019-02-21T13:01:25.308Z,5.03
2019-02-21T13:06:29.705Z,5.92
2019-02-21T13:11:35.586Z,5.05
2019-02-21T13:16:40.846Z,4.93
2019-02-21T13:21:45.199Z,4.17
2019-02-21T13:26:50.337Z,5.10
2019-02-21T13:31:55.085Z,4.73
2019-02-21T13:37:01.294Z,3.83
2019-02-21T13:42:05.728Z,4.00
2019-02-21T13:47:10.119Z,4.07
2019-02-21T13:52:15.499Z,3.70
2019-02-21T13:57:20.359Z,3.70
2019-02-21T14:02:25.529Z,3.00
2019-02-21T14:07:30.631Z,3.72
2019-02-21T14:12:35.144Z,3.13
2019-02-21T14:17:39.813Z,3.73
2019-02-21T14:22:45.790Z,3.47
2019-02-21T14:27:52.033Z,2.93
2019-02-21T14:32:57.388Z,2.90
2019-02-21T14:38:02.301Z,3.20
2019-02-21T14:43:07.485Z,2.30
2019-02-21T14:48:12.349Z,2.33
2019-02-21T14:53:17.233Z,2.87
2019-02-21T14:58:22.526Z,2.50
2019-02-21T15:03:27.053Z,2.70
2019-02-21T15:08:31.536Z,2.23
2019-02-21T15:13:35.987Z,2.53
2019-02-21T15:18:40.849Z,2.33
2019-02-21T15:23:46.589Z,2.70
2019-02-21T15:28:51.329Z,2.13
2019-02-21T15:33:56.319Z,2.70
2019-02-21T15:39:00.728Z,2.63
2019-02-21T15:44:05.604Z,2.50
2019-02-21T15:49:10.109Z,2.33
2019-02-21T15:54:14.535Z,3.03
2019-02-21T15:59:19.050Z,6.70
2019-02-21T16:04:23.985Z,10.87
2019-02-21T16:09:28.741Z,10.08
2019-02-21T16:14:33.497Z,9.73
2019-02-21T16:19:38.288Z,10.80
2019-02-21T16:24:43.731Z,10.93
2019-02-21T16:29:48.746Z,10.90
2019-02-21T16:34:53.530Z,10.90
2019-02-21T16:40:00.818Z,10.13
2019-02-21T16:45:07.214Z,13.08
2019-02-21T16:50:12.991Z,10.60
2019-02-21T16:55:20.999Z,11.93
2019-02-21T17:00:25.770Z,11.77
2019-02-21T17:05:30.673Z,11.43
2019-02-21T17:10:35.074Z,10.90
2019-02-21T17:15:39.476Z,11.33
2019-02-21T17:20:44.023Z,10.80
2019-02-21T17:25:48.641Z,11.37
2019-02-21T17:30:53.762Z,12.13
2019-02-21T17:36:01.648Z,12.30
2019-02-21T17:41:06.417Z,11.60
2019-02-21T17:46:10.955Z,12.07
2019-02-21T17:51:15.865Z,11.80
2019-02-21T17:56:20.713Z,11.17
2019-02-21T18:01:27.754Z,12.20
2019-02-21T18:06:33.548Z,12.90
2019-02-21T18:11:39.255Z,11.20
2019-02-21T18:16:45.069Z,12.83
2019-02-21T18:21:53.866Z,13.83
2019-02-21T18:27:03.393Z,11.47
2019-02-21T18:32:09.314Z,9.50
2019-02-21T18:37:16.302Z,5.73
2019-02-21T18:42:21.063Z,5.67
2019-02-21T18:47:28.120Z,5.57
2019-02-21T18:52:33.407Z,5.70
2019-02-21T18:57:38.450Z,5.90
2019-02-21T19:02:43.036Z,5.67
2019-02-21T19:08:00.406Z,6.07
2019-02-21T19:12:57.009Z,6.17
2019-02-21T19:18:01.507Z,6.50
2019-02-21T19:23:06.751Z,6.10
2019-02-21T19:28:12.280Z,6.00
2019-02-21T19:33:17.388Z,5.97
2019-02-21T19:38:23.055Z,6.57
2019-02-21T19:43:31.798Z,7.22
2019-02-21T19:48:37.042Z,7.87
2019-02-21T19:53:41.728Z,6.63
2019-02-21T19:58:47.966Z,6.70
2019-02-21T20:03:53.800Z,6.13
2019-02-21T20:08:59.995Z,6.10
2019-02-21T20:14:05.141Z,6.53
2019-02-21T20:19:10.157Z,6.37
2019-02-21T20:24:15.301Z,7.13
2019-02-21T20:29:20.541Z,6.83
2019-02-21T20:34:25.511Z,7.43
2019-02-21T20:39:30.229Z,7.60
2019-02-21T20:44:36.338Z,7.45
2019-02-21T20:49:41.080Z,7.70
2019-02-21T20:54:46.382Z,7.27
2019-02-21T20:59:51.761Z,7.30
2019-02-21T21:04:57.713Z,6.73
2019-02-21T21:10:02.953Z,7.10
2019-02-21T21:15:09.562Z,6.80
2019-02-21T21:20:16.975Z,7.37
2019-02-21T21:25:21.077Z,6.20
2019-02-21T21:30:27.861Z,6.60
2019-02-21T21:35:33.009Z,6.03
2019-02-21T21:40:38.205Z,5.93
2019-02-21T21:45:42.604Z,7.33
2019-02-21T21:50:47.711Z,7.50
2019-02-21T21:55:52.255Z,6.87
2019-02-21T22:00:58.977Z,7.40
2019-02-21T22:06:03.883Z,7.03
2019-02-21T22:11:08.650Z,7.33
2019-02-21T22:16:13.404Z,7.10
2019-02-21T22:21:18.127Z,7.17
2019-02-21T22:26:23.252Z,6.87
2019-02-21T22:31:27.861Z,7.37
2019-02-21T22:36:32.735Z,6.58
2019-02-21T22:41:40.419Z,7.40
2019-02-21T22:46:45.270Z,8.37
2019-02-21T22:51:53.188Z,6.43
2019-02-21T22:56:59.717Z,8.37
2019-02-21T23:02:04.651Z,7.57
2019-02-21T23:07:54.510Z,7.13
2019-02-21T23:12:59.086Z,7.37
2019-02-21T23:18:04.188Z,6.73
2019-02-21T23:23:11.627Z,7.60
2019-02-21T23:28:16.057Z,9.30
2019-02-21T23:33:21.214Z,9.50
2019-02-21T23:38:26.493Z,8.37
2019-02-21T23:43:31.296Z,8.70
2019-02-21T23:48:35.729Z,8.77
2019-02-21T23:53:41.505Z,8.43
2019-02-21T23:58:46.158Z,8.77
